Etusivu
METAR-TAF:

METAR-TAF

Lentoasemat :

EuroAirport Basel-Mulhouse-Freiburg

Basel-Mulhouse, Ranska

Leveyspiiri: 47-36N, Pituuspiiri: 007-31E, korkeus merenpinnasta: 270 m

Tämänhetkinen sää

Tämä raportti tehtiin 26 minuuttia sitten, kello 05.00 UTC
Tuuli 6 kn pohjoisen/luoteesta
Lämpötila -3°C
Kosteus 74%
Ilmanpaine 1034 hPa
Näkyvyys 10 km tai enemmän
ei pilviä alle 1500 m:ssä eikä cumulonimbus-pilviä

METAR: LFSB 240500Z 33006KT CAVOK M03/M07 Q1034 NOSIG

Aika: 06:26 (05:26 UTC)

Sääennuste

Tämä raportti tehtiin 6 tuntia ja 26 minuuttia sitten, kello 23.00 UTC
Ennuste voimassa 24. päivästä klo 00 UTC - 24. päivään klo 24 UTC
Tuuli 5 kn pohjoisen/luoteesta
Näkyvyys 10 km tai enemmän
ei pilviä alle 1500 m:ssä eikä cumulonimbus-pilviä

TAF: LFSB 232300Z 2400/2424 34005KT CAVOK

Säähavainnot ja -ennusteet yli 4000 lentoasemalta (METAR- ja TAF-raportit).

Käytössä olevat sääasemat on merkitty karttaan keltaisilla ja punaisilla pisteillä.

Aseta hiiri pisteen päälle nähdäksesi sääaseman nimen.

Klikkaa sitten nähdäksesi säähavainnot ja -ennusteet.

Kartan vaihtaminen: klikkaa mustalla rastilla varustettuja vihreitä pisteitä, niin voit zoomata sisään; viivalla varustettua vihreää pistettä, niin voit zoomata ulos tai vihreitä nuolia, niin pääset viereisille kartoille.


METAR-TAF: